sensor_id;sensor_type;location;lat;lon;timestamp;temperature;humidity
15288;DHT22;7745;48.708;9.026;2024-01-15T00:02:05;-1.50;99.90
15288;DHT22;7745;48.708;9.026;2024-01-15T00:04:36;-1.50;99.90
15288;DHT22;7745;48.708;9.026;2024-01-15T00:07:02;-1.60;99.90
15288;DHT22;7745;48.708;9.026;2024-01-15T00:09:29;-1.50;99.90
15288;DHT22;7745;48.708;9.026;2024-01-15T00:11:57;-1.50;99.90
15288;DHT22;7745;48.708;9.026;2024-01-15T00:14:24;-1.50;99.90
15288;DHT22;7745;48.708;9.026;2024-01-15T00:16:51;-1.50;99.90
15288;DHT22;7745;48.708;9.026;2024-01-15T00:19:18;-1.40;99.90
15288;DHT22;7745;48.708;9.026;2024-01-15T00:21:45;-1.50;99.90
15288;DHT22;7745;48.708;9.026;2024-01-15T00:24:11;-1.40;99.90
15288;DHT22;7745;48.708;9.026;2024-01-15T00:26:39;-1.40;99.90
15288;DHT22;7745;48.708;9.026;2024-01-15T00:29:08;-1.40;99.90
15288;DHT22;7745;48.708;9.026;2024-01-15T00:31:35;-1.40;99.90
15288;DHT22;7745;48.708;9.026;2024-01-15T00:34:01;-1.40;99.90
15288;DHT22;7745;48.708;9.026;2024-01-15T00:36:28;-1.50;99.90
15288;DHT22;7745;48.708;9.026;2024-01-15T00:38:55;-1.50;99.90
15288;DHT22;7745;48.708;9.026;2024-01-15T00:41:22;-1.50;99.90
15288;DHT22;7745;48.708;9.026;2024-01-15T00:43:48;-1.50;99.90
15288;DHT22;7745;48.708;9.026;2024-01-15T00:46:16;-1.50;99.90
15288;DHT22;7745;48.708;9.026;2024-01-15T00:48:43;-1.60;99.90
15288;DHT22;7745;48.708;9.026;2024-01-15T00:51:10;-1.60;99.90
15288;DHT22;7745;48.708;9.026;2024-01-15T00:53:37;-1.60;99.90
15288;DHT22;7745;48.708;9.026;2024-01-15T00:56:04;-1.60;99.90
15288;DHT22;7745;48.708;9.026;2024-01-15T00:58:31;-1.70;99.90
15288;DHT22;7745;48.708;9.026;2024-01-15T01:00:57;-1.70;99.90
15288;DHT22;7745;48.708;9.026;2024-01-15T01:03:25;-1.70;99.90
15288;DHT22;7745;48.708;9.026;2024-01-15T01:05:52;-1.70;99.90
15288;DHT22;7745;48.708;9.026;2024-01-15T01:08:19;-1.70;99.90
15288;DHT22;7745;48.708;9.026;2024-01-15T01:10:46;-1.70;99.90
15288;DHT22;7745;48.708;9.026;2024-01-15T01:13:13;-1.70;99.90
15288;DHT22;7745;48.708;9.026;2024-01-15T01:15:39;-1.70;99.90
15288;DHT22;7745;48.708;9.026;2024-01-15T01:18:06;-1.70;99.90
15288;DHT22;7745;48.708;9.026;2024-01-15T01:20:34;-1.70;99.90
15288;DHT22;7745;48.708;9.026;2024-01-15T01:23:01;-1.70;99.90
15288;DHT22;7745;48.708;9.026;2024-01-15T01:25:28;-1.60;99.90
15288;DHT22;7745;48.708;9.026;2024-01-15T01:27:55;-1.60;99.90
15288;DHT22;7745;48.708;9.026;2024-01-15T01:30:22;-1.50;99.90
15288;DHT22;7745;48.708;9.026;2024-01-15T01:32:49;-1.50;99.90
15288;DHT22;7745;48.708;9.026;2024-01-15T01:35:15;-1.40;99.90
15288;DHT22;7745;48.708;9.026;2024-01-15T01:37:43;-1.40;99.90
15288;DHT22;7745;48.708;9.026;2024-01-15T01:40:10;-1.40;99.90
15288;DHT22;7745;48.708;9.026;2024-01-15T01:42:37;-1.30;99.90
15288;DHT22;7745;48.708;9.026;2024-01-15T01:45:05;-1.30;99.90
15288;DHT22;7745;48.708;9.026;2024-01-15T01:47:32;-1.30;99.90
15288;DHT22;7745;48.708;9.026;2024-01-15T01:49:59;-1.30;99.90
15288;DHT22;7745;48.708;9.026;2024-01-15T01:52:26;-1.40;99.90
15288;DHT22;7745;48.708;9.026;2024-01-15T01:54:54;-1.30;99.90
15288;DHT22;7745;48.708;9.026;2024-01-15T01:57:22;-1.40;99.90
15288;DHT22;7745;48.708;9.026;2024-01-15T01:59:49;-1.40;99.90
15288;DHT22;7745;48.708;9.026;2024-01-15T02:02:16;-1.40;99.90
15288;DHT22;7745;48.708;9.026;2024-01-15T02:04:43;-1.40;99.90
15288;DHT22;7745;48.708;9.026;2024-01-15T02:07:11;-1.40;99.90
15288;DHT22;7745;48.708;9.026;2024-01-15T02:09:38;-1.40;99.90
15288;DHT22;7745;48.708;9.026;2024-01-15T02:12:07;-1.40;99.90
15288;DHT22;7745;48.708;9.026;2024-01-15T02:14:34;-1.40;99.90
15288;DHT22;7745;48.708;9.026;2024-01-15T02:17:00;-1.40;99.90
15288;DHT22;7745;48.708;9.026;2024-01-15T02:19:27;-1.50;99.90
15288;DHT22;7745;48.708;9.026;2024-01-15T02:21:54;-1.50;99.90
15288;DHT22;7745;48.708;9.026;2024-01-15T02:24:22;-1.50;99.90
15288;DHT22;7745;48.708;9.026;2024-01-15T02:26:49;-1.50;99.90
15288;DHT22;7745;48.708;9.026;2024-01-15T02:29:16;-1.50;99.90
15288;DHT22;7745;48.708;9.026;2024-01-15T02:31:43;-1.60;99.90
15288;DHT22;7745;48.708;9.026;2024-01-15T02:34:10;-1.60;99.90
15288;DHT22;7745;48.708;9.026;2024-01-15T02:36:37;-1.60;99.90
15288;DHT22;7745;48.708;9.026;2024-01-15T02:39:04;-1.60;99.90
15288;DHT22;7745;48.708;9.026;2024-01-15T02:41:32;-1.50;99.90
15288;DHT22;7745;48.708;9.026;2024-01-15T02:43:59;-1.50;99.90
15288;DHT22;7745;48.708;9.026;2024-01-15T02:46:26;-1.50;99.90
15288;DHT22;7745;48.708;9.026;2024-01-15T02:48:52;-1.50;99.90
15288;DHT22;7745;48.708;9.026;2024-01-15T02:51:19;-1.50;99.90
15288;DHT22;7745;48.708;9.026;2024-01-15T02:53:46;-1.50;99.90
15288;DHT22;7745;48.708;9.026;2024-01-15T02:56:12;-1.50;99.90
15288;DHT22;7745;48.708;9.026;2024-01-15T02:58:41;-1.40;99.90
15288;DHT22;7745;48.708;9.026;2024-01-15T03:01:07;-1.40;99.90
15288;DHT22;7745;48.708;9.026;2024-01-15T03:03:34;-1.40;99.90
15288;DHT22;7745;48.708;9.026;2024-01-15T03:06:01;-1.40;99.90
15288;DHT22;7745;48.708;9.026;2024-01-15T03:08:28;-1.40;99.90
15288;DHT22;7745;48.708;9.026;2024-01-15T03:10:55;-1.40;99.90
15288;DHT22;7745;48.708;9.026;2024-01-15T03:13:22;-1.40;99.90
15288;DHT22;7745;48.708;9.026;2024-01-15T03:15:50;-1.40;99.90
15288;DHT22;7745;48.708;9.026;2024-01-15T03:18:17;-1.40;99.90
15288;DHT22;7745;48.708;9.026;2024-01-15T03:20:44;-1.40;99.90
15288;DHT22;7745;48.708;9.026;2024-01-15T03:23:10;-1.40;99.90
15288;DHT22;7745;48.708;9.026;2024-01-15T03:25:37;-1.30;99.90
15288;DHT22;7745;48.708;9.026;2024-01-15T03:28:04;-1.30;99.90
15288;DHT22;7745;48.708;9.026;2024-01-15T03:30:31;-1.30;99.90
15288;DHT22;7745;48.708;9.026;2024-01-15T03:32:59;-1.30;99.90
15288;DHT22;7745;48.708;9.026;2024-01-15T03:35:26;-1.30;99.90
15288;DHT22;7745;48.708;9.026;2024-01-15T03:37:54;-1.30;99.90
15288;DHT22;7745;48.708;9.026;2024-01-15T03:40:21;-1.30;99.90
15288;DHT22;7745;48.708;9.026;2024-01-15T03:42:48;-1.30;99.90
15288;DHT22;7745;48.708;9.026;2024-01-15T03:45:15;-1.20;99.90
15288;DHT22;7745;48.708;9.026;2024-01-15T03:47:42;-1.20;99.90
15288;DHT22;7745;48.708;9.026;2024-01-15T03:50:10;-1.20;99.90
15288;DHT22;7745;48.708;9.026;2024-01-15T03:52:37;-1.20;99.90
15288;DHT22;7745;48.708;9.026;2024-01-15T03:55:05;-1.20;99.90
15288;DHT22;7745;48.708;9.026;2024-01-15T03:57:32;-1.20;99.90
15288;DHT22;7745;48.708;9.026;2024-01-15T03:59:58;-1.10;99.90
15288;DHT22;7745;48.708;9.026;2024-01-15T04:02:25;-1.10;99.90
15288;DHT22;7745;48.708;9.026;2024-01-15T04:04:52;-1.00;99.90
15288;DHT22;7745;48.708;9.026;2024-01-15T04:07:20;-1.00;99.90
15288;DHT22;7745;48.708;9.026;2024-01-15T04:09:47;-0.90;99.90
15288;DHT22;7745;48.708;9.026;2024-01-15T04:12:13;-0.90;99.90
15288;DHT22;7745;48.708;9.026;2024-01-15T04:14:40;-0.90;99.90
15288;DHT22;7745;48.708;9.026;2024-01-15T04:17:07;-0.80;99.90
15288;DHT22;7745;48.708;9.026;2024-01-15T04:19:34;-0.80;99.90
15288;DHT22;7745;48.708;9.026;2024-01-15T04:22:00;-0.80;99.90
15288;DHT22;7745;48.708;9.026;2024-01-15T04:24:28;-0.80;99.90
15288;DHT22;7745;48.708;9.026;2024-01-15T04:26:57;-0.80;99.90
15288;DHT22;7745;48.708;9.026;2024-01-15T04:29:24;-0.80;99.90
15288;DHT22;7745;48.708;9.026;2024-01-15T04:31:52;-0.80;99.90
15288;DHT22;7745;48.708;9.026;2024-01-15T04:34:19;-0.70;99.90
15288;DHT22;7745;48.708;9.026;2024-01-15T04:36:46;-0.70;99.90
15288;DHT22;7745;48.708;9.026;2024-01-15T04:39:13;-0.70;99.90
15288;DHT22;7745;48.708;9.026;2024-01-15T04:41:41;-0.70;99.90
15288;DHT22;7745;48.708;9.026;2024-01-15T04:44:07;-0.70;99.90
15288;DHT22;7745;48.708;9.026;2024-01-15T04:46:34;-0.70;99.90
15288;DHT22;7745;48.708;9.026;2024-01-15T04:49:01;-0.70;99.90
15288;DHT22;7745;48.708;9.026;2024-01-15T04:51:28;-0.70;99.90
15288;DHT22;7745;48.708;9.026;2024-01-15T04:53:54;-0.70;99.90
15288;DHT22;7745;48.708;9.026;2024-01-15T04:56:21;-0.70;99.90
15288;DHT22;7745;48.708;9.026;2024-01-15T04:58:49;-0.70;99.90
15288;DHT22;7745;48.708;9.026;2024-01-15T05:01:16;-0.80;99.90
15288;DHT22;7745;48.708;9.026;2024-01-15T05:03:43;-0.80;99.90
15288;DHT22;7745;48.708;9.026;2024-01-15T05:06:10;-0.80;99.90
15288;DHT22;7745;48.708;9.026;2024-01-15T05:08:36;-0.80;99.90
15288;DHT22;7745;48.708;9.026;2024-01-15T05:11:03;-0.80;99.90
15288;DHT22;7745;48.708;9.026;2024-01-15T05:13:30;-0.80;99.90
15288;DHT22;7745;48.708;9.026;2024-01-15T05:15:59;-0.80;99.90
15288;DHT22;7745;48.708;9.026;2024-01-15T05:18:25;-0.70;99.90
15288;DHT22;7745;48.708;9.026;2024-01-15T05:20:51;-0.70;99.90
15288;DHT22;7745;48.708;9.026;2024-01-15T05:23:18;-0.70;99.90
15288;DHT22;7745;48.708;9.026;2024-01-15T05:25:45;-0.70;99.90
15288;DHT22;7745;48.708;9.026;2024-01-15T05:28:13;-0.70;99.90
15288;DHT22;7745;48.708;9.026;2024-01-15T05:30:40;-0.70;99.90
15288;DHT22;7745;48.708;9.026;2024-01-15T05:33:08;-0.70;99.90
15288;DHT22;7745;48.708;9.026;2024-01-15T05:35:35;-0.70;99.90
15288;DHT22;7745;48.708;9.026;2024-01-15T05:38:01;-0.70;99.90
15288;DHT22;7745;48.708;9.026;2024-01-15T05:40:28;-0.70;99.90
15288;DHT22;7745;48.708;9.026;2024-01-15T05:42:55;-0.70;99.90
15288;DHT22;7745;48.708;9.026;2024-01-15T05:45:21;-0.70;99.90
15288;DHT22;7745;48.708;9.026;2024-01-15T05:47:48;-0.70;99.90
15288;DHT22;7745;48.708;9.026;2024-01-15T05:50:16;-0.70;99.90
15288;DHT22;7745;48.708;9.026;2024-01-15T05:52:43;-0.70;99.90
15288;DHT22;7745;48.708;9.026;2024-01-15T05:55:10;-0.70;99.90
15288;DHT22;7745;48.708;9.026;2024-01-15T05:57:37;-0.70;99.90
15288;DHT22;7745;48.708;9.026;2024-01-15T06:00:04;-0.70;99.90
15288;DHT22;7745;48.708;9.026;2024-01-15T06:02:31;-0.70;99.90
15288;DHT22;7745;48.708;9.026;2024-01-15T06:04:58;-0.70;99.90
15288;DHT22;7745;48.708;9.026;2024-01-15T06:07:26;-0.70;99.90
15288;DHT22;7745;48.708;9.026;2024-01-15T06:09:53;-0.70;99.90
15288;DHT22;7745;48.708;9.026;2024-01-15T06:12:22;-0.70;99.90
15288;DHT22;7745;48.708;9.026;2024-01-15T06:14:49;-0.70;99.90
15288;DHT22;7745;48.708;9.026;2024-01-15T06:17:16;-0.70;99.90
15288;DHT22;7745;48.708;9.026;2024-01-15T06:19:42;-0.70;99.90
15288;DHT22;7745;48.708;9.026;2024-01-15T06:22:09;-0.70;99.90
15288;DHT22;7745;48.708;9.026;2024-01-15T06:24:37;-0.70;99.90
15288;DHT22;7745;48.708;9.026;2024-01-15T06:27:04;-0.70;99.90
15288;DHT22;7745;48.708;9.026;2024-01-15T06:29:32;-0.70;99.90
15288;DHT22;7745;48.708;9.026;2024-01-15T06:31:59;-0.70;99.90
15288;DHT22;7745;48.708;9.026;2024-01-15T06:34:25;-0.70;99.90
15288;DHT22;7745;48.708;9.026;2024-01-15T06:36:52;-0.70;99.90
15288;DHT22;7745;48.708;9.026;2024-01-15T06:39:19;-0.70;99.90
15288;DHT22;7745;48.708;9.026;2024-01-15T06:41:47;-0.70;99.90
15288;DHT22;7745;48.708;9.026;2024-01-15T06:44:14;-0.70;99.90
15288;DHT22;7745;48.708;9.026;2024-01-15T06:46:42;-0.70;99.90
15288;DHT22;7745;48.708;9.026;2024-01-15T06:49:09;-0.70;99.90
15288;DHT22;7745;48.708;9.026;2024-01-15T06:51:36;-0.70;99.90
15288;DHT22;7745;48.708;9.026;2024-01-15T06:54:03;-0.60;99.90
15288;DHT22;7745;48.708;9.026;2024-01-15T06:56:31;-0.60;99.90
15288;DHT22;7745;48.708;9.026;2024-01-15T06:58:59;-0.60;99.90
15288;DHT22;7745;48.708;9.026;2024-01-15T07:01:26;-0.60;99.90
15288;DHT22;7745;48.708;9.026;2024-01-15T07:03:52;-0.60;99.90
15288;DHT22;7745;48.708;9.026;2024-01-15T07:06:19;-0.60;99.90
15288;DHT22;7745;48.708;9.026;2024-01-15T07:08:46;-0.60;99.90
15288;DHT22;7745;48.708;9.026;2024-01-15T07:11:13;-0.70;99.90
15288;DHT22;7745;48.708;9.026;2024-01-15T07:13:39;-0.70;99.90
15288;DHT22;7745;48.708;9.026;2024-01-15T07:16:07;-0.70;99.90
15288;DHT22;7745;48.708;9.026;2024-01-15T07:18:34;-0.60;99.90
15288;DHT22;7745;48.708;9.026;2024-01-15T07:21:01;-0.60;99.90
15288;DHT22;7745;48.708;9.026;2024-01-15T07:23:28;-0.60;99.90
15288;DHT22;7745;48.708;9.026;2024-01-15T07:25:55;-0.50;99.90
15288;DHT22;7745;48.708;9.026;2024-01-15T07:28:21;-0.50;99.90
15288;DHT22;7745;48.708;9.026;2024-01-15T07:30:48;-0.50;99.90
15288;DHT22;7745;48.708;9.026;2024-01-15T07:33:16;-0.50;99.90
15288;DHT22;7745;48.708;9.026;2024-01-15T07:35:43;-0.50;99.90
15288;DHT22;7745;48.708;9.026;2024-01-15T07:38:10;-0.50;99.90
15288;DHT22;7745;48.708;9.026;2024-01-15T07:40:37;-0.50;99.90
15288;DHT22;7745;48.708;9.026;2024-01-15T07:43:04;-0.50;99.90
15288;DHT22;7745;48.708;9.026;2024-01-15T07:45:31;-0.50;99.90
15288;DHT22;7745;48.708;9.026;2024-01-15T07:47:58;-0.50;99.90
15288;DHT22;7745;48.708;9.026;2024-01-15T07:50:27;-0.50;99.90
15288;DHT22;7745;48.708;9.026;2024-01-15T07:52:55;-0.50;99.90
15288;DHT22;7745;48.708;9.026;2024-01-15T07:55:33;-0.50;99.90
15288;DHT22;7745;48.708;9.026;2024-01-15T07:58:00;-0.40;99.90
15288;DHT22;7745;48.708;9.026;2024-01-15T08:00:27;-0.50;99.90
15288;DHT22;7745;48.708;9.026;2024-01-15T08:02:54;-0.40;99.90
15288;DHT22;7745;48.708;9.026;2024-01-15T08:05:21;-0.40;99.90
15288;DHT22;7745;48.708;9.026;2024-01-15T08:07:49;-0.40;99.90
15288;DHT22;7745;48.708;9.026;2024-01-15T08:10:16;-0.40;99.90
15288;DHT22;7745;48.708;9.026;2024-01-15T08:12:42;-0.40;99.90
15288;DHT22;7745;48.708;9.026;2024-01-15T08:15:09;-0.30;99.90
15288;DHT22;7745;48.708;9.026;2024-01-15T08:17:36;-0.30;99.90
15288;DHT22;7745;48.708;9.026;2024-01-15T08:20:03;-0.30;99.90
15288;DHT22;7745;48.708;9.026;2024-01-15T08:22:30;-0.30;99.90
15288;DHT22;7745;48.708;9.026;2024-01-15T08:24:58;-0.30;99.90
15288;DHT22;7745;48.708;9.026;2024-01-15T08:27:25;-0.20;99.90
15288;DHT22;7745;48.708;9.026;2024-01-15T08:29:52;-0.10;99.90
15288;DHT22;7745;48.708;9.026;2024-01-15T08:32:19;-0.10;99.90
15288;DHT22;7745;48.708;9.026;2024-01-15T08:34:45;0.00;99.90
15288;DHT22;7745;48.708;9.026;2024-01-15T08:37:14;0.00;99.90
15288;DHT22;7745;48.708;9.026;2024-01-15T08:39:41;0.10;99.90
15288;DHT22;7745;48.708;9.026;2024-01-15T08:42:09;0.10;99.90
15288;DHT22;7745;48.708;9.026;2024-01-15T08:44:36;0.20;99.90
15288;DHT22;7745;48.708;9.026;2024-01-15T08:47:06;0.20;99.90
15288;DHT22;7745;48.708;9.026;2024-01-15T08:49:32;0.30;99.90
15288;DHT22;7745;48.708;9.026;2024-01-15T08:51:59;0.30;99.90
15288;DHT22;7745;48.708;9.026;2024-01-15T08:54:26;0.30;99.90
15288;DHT22;7745;48.708;9.026;2024-01-15T08:56:53;0.40;99.90
15288;DHT22;7745;48.708;9.026;2024-01-15T08:59:21;0.40;99.90
15288;DHT22;7745;48.708;9.026;2024-01-15T09:01:51;0.50;99.90
15288;DHT22;7745;48.708;9.026;2024-01-15T09:04:18;0.40;99.90
15288;DHT22;7745;48.708;9.026;2024-01-15T09:06:45;0.50;99.90
15288;DHT22;7745;48.708;9.026;2024-01-15T09:09:12;0.50;99.90
15288;DHT22;7745;48.708;9.026;2024-01-15T09:11:39;0.50;99.90
15288;DHT22;7745;48.708;9.026;2024-01-15T09:14:06;0.50;99.90
15288;DHT22;7745;48.708;9.026;2024-01-15T09:16:35;0.60;99.90
15288;DHT22;7745;48.708;9.026;2024-01-15T09:19:02;0.60;99.90
15288;DHT22;7745;48.708;9.026;2024-01-15T09:21:29;0.60;99.90
15288;DHT22;7745;48.708;9.026;2024-01-15T09:23:56;0.60;99.90
15288;DHT22;7745;48.708;9.026;2024-01-15T09:26:23;0.70;99.90
15288;DHT22;7745;48.708;9.026;2024-01-15T09:28:50;0.70;99.90
15288;DHT22;7745;48.708;9.026;2024-01-15T09:31:17;0.70;99.90
15288;DHT22;7745;48.708;9.026;2024-01-15T09:33:46;0.70;99.90
15288;DHT22;7745;48.708;9.026;2024-01-15T09:36:13;0.70;99.90
15288;DHT22;7745;48.708;9.026;2024-01-15T09:38:40;0.70;99.90
15288;DHT22;7745;48.708;9.026;2024-01-15T09:41:08;0.70;99.90
15288;DHT22;7745;48.708;9.026;2024-01-15T09:43:35;0.70;99.90
15288;DHT22;7745;48.708;9.026;2024-01-15T09:46:03;0.80;99.90
15288;DHT22;7745;48.708;9.026;2024-01-15T09:48:30;0.80;99.90
15288;DHT22;7745;48.708;9.026;2024-01-15T09:51:01;0.80;99.90
15288;DHT22;7745;48.708;9.026;2024-01-15T09:53:28;0.90;99.90
15288;DHT22;7745;48.708;9.026;2024-01-15T09:55:55;0.90;99.90
15288;DHT22;7745;48.708;9.026;2024-01-15T09:58:22;0.90;99.90
15288;DHT22;7745;48.708;9.026;2024-01-15T10:00:50;0.90;99.90
15288;DHT22;7745;48.708;9.026;2024-01-15T10:03:18;1.00;99.90
15288;DHT22;7745;48.708;9.026;2024-01-15T10:05:45;1.00;99.90
15288;DHT22;7745;48.708;9.026;2024-01-15T10:08:14;1.00;99.90
15288;DHT22;7745;48.708;9.026;2024-01-15T10:10:41;1.00;99.90
15288;DHT22;7745;48.708;9.026;2024-01-15T10:13:08;1.00;99.90
15288;DHT22;7745;48.708;9.026;2024-01-15T10:15:35;1.60;99.90
15288;DHT22;7745;48.708;9.026;2024-01-15T10:18:03;1.00;99.90
15288;DHT22;7745;48.708;9.026;2024-01-15T10:20:32;1.00;99.90
15288;DHT22;7745;48.708;9.026;2024-01-15T10:22:59;1.10;99.90
15288;DHT22;7745;48.708;9.026;2024-01-15T10:25:41;1.10;99.90
15288;DHT22;7745;48.708;9.026;2024-01-15T10:28:08;1.00;99.90
15288;DHT22;7745;48.708;9.026;2024-01-15T10:30:35;1.00;99.90
15288;DHT22;7745;48.708;9.026;2024-01-15T10:33:04;1.00;99.90
15288;DHT22;7745;48.708;9.026;2024-01-15T10:35:31;1.00;99.90
15288;DHT22;7745;48.708;9.026;2024-01-15T10:37:59;1.00;99.90
15288;DHT22;7745;48.708;9.026;2024-01-15T10:40:26;1.10;99.90
15288;DHT22;7745;48.708;9.026;2024-01-15T10:42:54;1.40;99.90
15288;DHT22;7745;48.708;9.026;2024-01-15T10:45:22;1.10;99.90
15288;DHT22;7745;48.708;9.026;2024-01-15T10:47:49;1.10;99.90
15288;DHT22;7745;48.708;9.026;2024-01-15T10:50:16;1.10;99.90
15288;DHT22;7745;48.708;9.026;2024-01-15T10:52:43;1.20;99.90
15288;DHT22;7745;48.708;9.026;2024-01-15T10:55:11;1.20;99.90
15288;DHT22;7745;48.708;9.026;2024-01-15T10:57:38;1.30;99.90
15288;DHT22;7745;48.708;9.026;2024-01-15T11:00:08;1.40;99.90
15288;DHT22;7745;48.708;9.026;2024-01-15T11:02:40;1.30;99.90
15288;DHT22;7745;48.708;9.026;2024-01-15T11:05:07;1.30;99.90
15288;DHT22;7745;48.708;9.026;2024-01-15T11:07:34;1.30;99.90
15288;DHT22;7745;48.708;9.026;2024-01-15T11:10:03;1.20;99.90
15288;DHT22;7745;48.708;9.026;2024-01-15T11:12:31;1.20;99.90
15288;DHT22;7745;48.708;9.026;2024-01-15T11:15:02;1.30;99.90
15288;DHT22;7745;48.708;9.026;2024-01-15T11:18:00;1.10;99.90
15288;DHT22;7745;48.708;9.026;2024-01-15T11:20:31;1.10;99.90
15288;DHT22;7745;48.708;9.026;2024-01-15T11:22:59;1.80;99.90
15288;DHT22;7745;48.708;9.026;2024-01-15T11:25:34;1.10;99.90
15288;DHT22;7745;48.708;9.026;2024-01-15T11:28:03;1.10;99.90
15288;DHT22;7745;48.708;9.026;2024-01-15T11:30:30;1.10;99.90
15288;DHT22;7745;48.708;9.026;2024-01-15T11:33:03;1.10;99.90
15288;DHT22;7745;48.708;9.026;2024-01-15T11:35:48;1.10;99.90
15288;DHT22;7745;48.708;9.026;2024-01-15T11:38:26;1.10;99.90
15288;DHT22;7745;48.708;9.026;2024-01-15T11:40:54;1.10;99.90
15288;DHT22;7745;48.708;9.026;2024-01-15T11:43:21;1.10;99.90
15288;DHT22;7745;48.708;9.026;2024-01-15T11:45:52;1.10;99.90
15288;DHT22;7745;48.708;9.026;2024-01-15T11:48:20;1.10;99.90
15288;DHT22;7745;48.708;9.026;2024-01-15T11:50:50;1.10;99.90
15288;DHT22;7745;48.708;9.026;2024-01-15T11:53:25;1.10;99.90
15288;DHT22;7745;48.708;9.026;2024-01-15T11:55:58;1.10;99.90
15288;DHT22;7745;48.708;9.026;2024-01-15T11:58:26;1.10;99.90
15288;DHT22;7745;48.708;9.026;2024-01-15T12:00:53;1.10;99.90
15288;DHT22;7745;48.708;9.026;2024-01-15T12:03:22;1.10;99.90
15288;DHT22;7745;48.708;9.026;2024-01-15T12:05:49;1.10;99.90
15288;DHT22;7745;48.708;9.026;2024-01-15T12:08:21;1.00;99.90
15288;DHT22;7745;48.708;9.026;2024-01-15T12:10:48;1.00;99.90
15288;DHT22;7745;48.708;9.026;2024-01-15T12:13:15;0.90;99.90
15288;DHT22;7745;48.708;9.026;2024-01-15T12:15:43;0.80;99.90
15288;DHT22;7745;48.708;9.026;2024-01-15T12:18:12;0.80;99.90
15288;DHT22;7745;48.708;9.026;2024-01-15T12:20:42;0.70;99.90
15288;DHT22;7745;48.708;9.026;2024-01-15T12:23:10;0.70;99.90
15288;DHT22;7745;48.708;9.026;2024-01-15T12:25:37;0.70;99.90
15288;DHT22;7745;48.708;9.026;2024-01-15T12:28:04;0.60;99.90
15288;DHT22;7745;48.708;9.026;2024-01-15T12:30:33;0.60;99.90
15288;DHT22;7745;48.708;9.026;2024-01-15T12:33:01;0.60;99.90
15288;DHT22;7745;48.708;9.026;2024-01-15T12:35:29;0.60;99.90
15288;DHT22;7745;48.708;9.026;2024-01-15T12:37:59;0.70;99.90
15288;DHT22;7745;48.708;9.026;2024-01-15T12:40:27;0.60;99.90
15288;DHT22;7745;48.708;9.026;2024-01-15T12:42:54;0.60;99.90
15288;DHT22;7745;48.708;9.026;2024-01-15T12:45:21;0.50;99.90
15288;DHT22;7745;48.708;9.026;2024-01-15T12:47:48;0.50;99.90
15288;DHT22;7745;48.708;9.026;2024-01-15T12:50:16;0.50;99.90
15288;DHT22;7745;48.708;9.026;2024-01-15T12:52:43;0.50;99.90
15288;DHT22;7745;48.708;9.026;2024-01-15T12:55:12;0.50;99.90
15288;DHT22;7745;48.708;9.026;2024-01-15T12:57:39;0.50;99.90
15288;DHT22;7745;48.708;9.026;2024-01-15T13:00:06;0.50;99.90
15288;DHT22;7745;48.708;9.026;2024-01-15T13:02:37;0.50;99.90
15288;DHT22;7745;48.708;9.026;2024-01-15T13:05:05;0.50;99.90
15288;DHT22;7745;48.708;9.026;2024-01-15T13:07:32;0.50;99.90
15288;DHT22;7745;48.708;9.026;2024-01-15T13:09:59;0.50;99.90
15288;DHT22;7745;48.708;9.026;2024-01-15T13:12:27;0.50;99.90
15288;DHT22;7745;48.708;9.026;2024-01-15T13:14:54;0.50;99.90
15288;DHT22;7745;48.708;9.026;2024-01-15T13:17:21;0.40;99.90
15288;DHT22;7745;48.708;9.026;2024-01-15T13:19:48;0.40;99.90
15288;DHT22;7745;48.708;9.026;2024-01-15T13:22:15;0.40;99.90
15288;DHT22;7745;48.708;9.026;2024-01-15T13:24:42;0.90;99.90
15288;DHT22;7745;48.708;9.026;2024-01-15T13:27:09;0.40;99.90
15288;DHT22;7745;48.708;9.026;2024-01-15T13:29:38;0.40;99.90
15288;DHT22;7745;48.708;9.026;2024-01-15T13:32:05;0.50;99.90
15288;DHT22;7745;48.708;9.026;2024-01-15T13:34:32;0.50;99.90
15288;DHT22;7745;48.708;9.026;2024-01-15T13:36:59;0.40;99.90
15288;DHT22;7745;48.708;9.026;2024-01-15T13:39:25;0.40;99.90
15288;DHT22;7745;48.708;9.026;2024-01-15T13:41:52;0.40;99.90
15288;DHT22;7745;48.708;9.026;2024-01-15T13:44:19;0.40;99.90
15288;DHT22;7745;48.708;9.026;2024-01-15T13:46:47;0.40;99.90
15288;DHT22;7745;48.708;9.026;2024-01-15T13:49:14;0.50;99.90
15288;DHT22;7745;48.708;9.026;2024-01-15T13:51:41;0.50;99.90
15288;DHT22;7745;48.708;9.026;2024-01-15T13:54:08;0.50;99.90
15288;DHT22;7745;48.708;9.026;2024-01-15T13:56:35;0.50;99.90
15288;DHT22;7745;48.708;9.026;2024-01-15T13:59:01;0.40;99.90
15288;DHT22;7745;48.708;9.026;2024-01-15T14:01:29;0.50;99.90
15288;DHT22;7745;48.708;9.026;2024-01-15T14:03:58;0.40;99.90
15288;DHT22;7745;48.708;9.026;2024-01-15T14:06:24;0.40;99.90
15288;DHT22;7745;48.708;9.026;2024-01-15T14:08:51;0.40;99.90
15288;DHT22;7745;48.708;9.026;2024-01-15T14:11:18;0.40;99.90
15288;DHT22;7745;48.708;9.026;2024-01-15T14:13:45;0.40;99.90
15288;DHT22;7745;48.708;9.026;2024-01-15T14:16:12;0.40;99.90
15288;DHT22;7745;48.708;9.026;2024-01-15T14:18:39;0.50;99.90
15288;DHT22;7745;48.708;9.026;2024-01-15T14:21:07;0.40;99.90
15288;DHT22;7745;48.708;9.026;2024-01-15T14:23:35;0.40;99.90
15288;DHT22;7745;48.708;9.026;2024-01-15T14:26:02;0.40;99.90
15288;DHT22;7745;48.708;9.026;2024-01-15T14:28:29;0.60;99.90
15288;DHT22;7745;48.708;9.026;2024-01-15T14:30:56;0.40;99.90
15288;DHT22;7745;48.708;9.026;2024-01-15T14:33:24;0.40;99.90
15288;DHT22;7745;48.708;9.026;2024-01-15T14:35:51;0.40;99.90
15288;DHT22;7745;48.708;9.026;2024-01-15T14:38:20;0.40;99.90
15288;DHT22;7745;48.708;9.026;2024-01-15T14:40:47;0.30;99.90
15288;DHT22;7745;48.708;9.026;2024-01-15T14:43:14;0.30;99.90
15288;DHT22;7745;48.708;9.026;2024-01-15T14:45:41;0.30;99.90
15288;DHT22;7745;48.708;9.026;2024-01-15T14:48:09;0.30;99.90
15288;DHT22;7745;48.708;9.026;2024-01-15T14:50:35;0.30;99.90
15288;DHT22;7745;48.708;9.026;2024-01-15T14:53:02;0.30;99.90
15288;DHT22;7745;48.708;9.026;2024-01-15T14:55:31;0.30;99.90
15288;DHT22;7745;48.708;9.026;2024-01-15T14:57:58;0.30;99.90
15288;DHT22;7745;48.708;9.026;2024-01-15T15:00:24;0.30;99.90
15288;DHT22;7745;48.708;9.026;2024-01-15T15:02:51;0.30;99.90
15288;DHT22;7745;48.708;9.026;2024-01-15T15:05:18;0.30;99.90
15288;DHT22;7745;48.708;9.026;2024-01-15T15:07:45;0.20;99.90
15288;DHT22;7745;48.708;9.026;2024-01-15T15:10:12;0.20;99.90
15288;DHT22;7745;48.708;9.026;2024-01-15T15:12:41;0.20;99.90
15288;DHT22;7745;48.708;9.026;2024-01-15T15:15:09;0.20;99.90
15288;DHT22;7745;48.708;9.026;2024-01-15T15:17:37;0.20;99.90
15288;DHT22;7745;48.708;9.026;2024-01-15T15:20:05;0.20;99.90
15288;DHT22;7745;48.708;9.026;2024-01-15T15:22:32;0.20;99.90
15288;DHT22;7745;48.708;9.026;2024-01-15T15:24:59;0.20;99.90
15288;DHT22;7745;48.708;9.026;2024-01-15T15:27:26;0.20;99.90
15288;DHT22;7745;48.708;9.026;2024-01-15T15:29:55;0.10;99.90
15288;DHT22;7745;48.708;9.026;2024-01-15T15:32:22;0.10;99.90
15288;DHT22;7745;48.708;9.026;2024-01-15T15:34:49;0.10;99.90
15288;DHT22;7745;48.708;9.026;2024-01-15T15:37:15;0.10;99.90
15288;DHT22;7745;48.708;9.026;2024-01-15T15:39:42;0.00;99.90
15288;DHT22;7745;48.708;9.026;2024-01-15T15:42:09;0.00;99.90
15288;DHT22;7745;48.708;9.026;2024-01-15T15:44:36;0.00;99.90
15288;DHT22;7745;48.708;9.026;2024-01-15T15:47:10;0.00;99.90
15288;DHT22;7745;48.708;9.026;2024-01-15T15:49:37;0.00;99.90
15288;DHT22;7745;48.708;9.026;2024-01-15T15:52:04;-0.10;99.90
15288;DHT22;7745;48.708;9.026;2024-01-15T15:54:30;-0.10;99.90